• Join FlightAware (Why Join?)
  • Login
  • US Flag 
01:44AM EST


 

Airport Tracker/Info


-or-


 

Live Flight TrackerFlight Track Log ✈ DAL1356 ✈ 30-Jul-2013 ✈ CYVR - KJFK

Flight Track Log - Related Links

Times and Time Zones

All times are in EDT time to prevent confusion due to time zone crossing. See the DAL1356 flight status page for this flight to view local times or setup timezone preferences in your user account.

Time Position Orientation Groundspeed Altitude Reporting Facility
EDT Latitude Longitude Course Direction KTS MPH feet Rate Location/Type
01:46AM 49.1667 -123.1167 80° East 180 207 1,600  Level Vancouver Center
01:47AM 49.1667 -123.0000 90° East 250 288 3,800 2,520 Climbing Vancouver Center
01:48AM 49.1500 -122.9000 104° East 270 311 6,700 2,940 Climbing Vancouver Center
01:49AM 48.9424 -122.4763 81° East  Level FlightAware Approximate
01:49AM 49.1333 -122.7833 102° East 270 311 9,700  Level Vancouver Center
01:50AM 48.9724 -122.2766 83° East  Level FlightAware Approximate
01:50AM 49.1333 -122.6500 90° East 300 345 11,000  Level Vancouver Center
01:51AM 48.9902 -122.0713 80° East  Level FlightAware Approximate
01:51AM 49.1333 -122.5000 90° East 360 414 12,700  Level Vancouver Center
01:52AM 49.1500 -122.3167 82° East 390 449 15,100 2,160 Climbing Vancouver Center
01:53AM 49.1667 -122.1667 80° East 400 460 17,100 1,980 Climbing Vancouver Center
01:54AM 49.1500 -121.9833 98° East 420 483 19,100 1,980 Climbing Vancouver Center
01:55AM 49.1667 -121.8000 82° East 430 495 21,100 1,680 Climbing Vancouver Center
01:56AM 49.1833 -121.6000 83° East 430 495 22,500 1,380 Climbing Vancouver Center
01:57AM 49.1833 -121.4000 90° East 450 518 23,900 1,260 Climbing Vancouver Center
01:58AM 49.2000 -121.2167 82° East 460 529 25,100 1,020 Climbing Vancouver Center
01:59AM 49.2000 -121.0167 90° East 480 552 26,000 900 Climbing Vancouver Center
02:00AM 49.2000 -120.8167 90° East 490 564 27,000 1,020 Climbing Vancouver Center
02:01AM 49.2167 -120.6000 83° East 500 575 28,100 1,380 Climbing Vancouver Center
02:02AM 49.2167 -120.3667 90° East 510 587 29,800 1,500 Climbing Vancouver Center
02:03AM 49.2333 -120.1667 83° East 500 575 31,200 1,140 Climbing Vancouver Center
02:04AM 49.2167 -119.9667 97° East 500 575 32,100 900 Climbing Vancouver Center
02:05AM 49.2333 -119.7667 83° East 500 575 33,000 1,020 Climbing Vancouver Center
02:06AM 49.2333 -119.5333 90° East 500 575 34,200 960 Climbing Vancouver Center
02:07AM 49.2500 -119.3167 83° East 500 575 35,000 360 Climbing Vancouver Center
02:08AM 49.2333 -119.1000 97° East 500 575 35,000  Level Vancouver Center
02:09AM 49.2500 -118.8833 83° East 500 575 35,000  Level Vancouver Center
02:10AM 49.2500 -118.6833 90° East 500 575 35,000  Level Vancouver Center
02:11AM 49.2667 -118.4833 83° East 500 575 35,000  Level Vancouver Center
02:12AM 49.2500 -118.2667 97° East 500 575 35,000  Level Vancouver Center
02:13AM 49.2667 -118.0333 84° East 500 575 35,000  Level Vancouver Center
02:14AM 49.2667 -117.8333 90° East 500 575 35,000  Level Vancouver Center
02:15AM 49.2667 -117.6333 90° East 500 575 35,000  Level Vancouver Center
02:16AM 49.2667 -117.4333 90° East 500 575 35,000  Level Vancouver Center
02:17AM 49.2667 -117.2000 90° East 500 575 35,000  Level Vancouver Center
02:18AM 49.2667 -116.9833 90° East 500 575 35,000  Level Vancouver Center
02:19AM 49.2667 -116.7500 90° East 510 587 35,000  Level Vancouver Center
02:20AM 49.2500 -116.5500 97° East 510 587 35,000  Level Vancouver Center
02:21AM 49.2667 -116.3167 84° East 510 587 35,000  Level Vancouver Center
02:22AM 49.2667 -116.1167 90° East 510 587 35,000  Level Vancouver Center
02:23AM 49.2500 -115.9167 97° East 510 587 35,000  Level Vancouver Center
02:24AM 49.2333 -115.6833 96° East 510 587 35,000  Level Vancouver Center
02:25AM 49.2167 -115.4833 97° East 510 587 35,000  Level Vancouver Center
02:26AM 49.2000 -115.2500 96° East 510 587 35,000  Level Vancouver Center
02:27AM 49.1833 -115.0333 97° East 520 598 35,000  Level Vancouver Center
02:28AM 49.1667 -114.8167 97° East 520 598 35,000  Level Vancouver Center
02:29AM 49.1500 -114.6000 97° East 510 587 35,000  Level Vancouver Center
02:30AM 49.1333 -114.4000 97° East 520 598 35,000  Level Vancouver Center
02:31AM 49.1167 -114.1667 96° East 510 587 35,000  Level Vancouver Center
02:32AM 49.1000 -113.9667 97° East 520 598 35,000  Level Vancouver Center
02:33AM 49.0833 -113.7333 96° East 510 587 35,000  Level Vancouver Center
02:34AM 49.0500 -113.5167 103° East 510 587 35,000  Level Vancouver Center
02:35AM 49.0333 -113.2833 96° East 520 598 35,000  Level Vancouver Center
02:36AM 49.0167 -113.0833 97° East 510 587 35,000  Level Vancouver Center
02:37AM 49.0000 -112.8667 97° East 520 598 35,000  Level Vancouver Center
02:38AM 48.9667 -112.6667 104° East 510 587 35,000  Level Vancouver Center
02:39AM 48.9500 -112.4333 96° East 520 598 35,000  Level Vancouver Center
02:40AM 48.9333 -112.2167 97° East 520 598 35,000  Level Vancouver Center
02:41AM 48.9000 -112.0167 104° East 520 598 35,000 -60 Level Vancouver Center
02:42AM 48.9003 -111.8117 90° East 516 594 34,900  Descending Salt Lake Center
02:43AM 48.8764 -111.5947 99° East 519 597 35,000  Climbing Salt Lake Center
02:44AM 48.8531 -111.3778 99° East 520 598 34,900  Descending Salt Lake Center
02:45AM 48.8281 -111.1594 100° East 523 602 35,000  Climbing Salt Lake Center
02:46AM 48.8031 -110.9408 100° East 524 603 35,000 -60 Level Salt Lake Center
02:47AM 48.7775 -110.7222 100° East 527 606 34,900  Descending Salt Lake Center
02:48AM 48.7517 -110.5031 100° East 527 606 35,000  Climbing Salt Lake Center
02:49AM 48.7253 -110.2847 100° East 528 608 35,000  Level Salt Lake Center
02:50AM 48.6978 -110.0653 101° East 530 610 35,000 -60 Level Salt Lake Center
02:51AM 48.6700 -109.8444 101° East 532 612 34,900  Descending Salt Lake Center
02:52AM 48.6431 -109.6242 100° East 533 613 35,000  Climbing Salt Lake Center
02:53AM 48.6094 -109.3625 101° East 531 611 35,000 -60 Level Salt Lake Center
02:54AM 48.5819 -109.1414 101° East 533 613 34,900  Descending Salt Lake Center
02:55AM 48.5494 -108.9194 102° East 536 617 35,000  Climbing Salt Lake Center
02:56AM 48.5194 -108.7008 102° East 535 616 35,000 -60 Level Salt Lake Center
02:57AM 48.4886 -108.4817 102° East 536 617 34,900  Descending Salt Lake Center
02:58AM 48.4581 -108.2619 102° East 536 617 35,000  Climbing Salt Lake Center
02:59AM 48.4281 -108.0425 102° East 536 617 35,000  Level Salt Lake Center
03:00AM 48.3961 -107.8242 102° East 535 616 35,000 -60 Level Salt Lake Center
03:01AM 48.3636 -107.6053 103° East 537 618 34,900  Descending Salt Lake Center
03:02AM 48.3314 -107.3872 102° East 537 618 35,000  Climbing Salt Lake Center
03:03AM 48.3031 -107.1903 102° East 538 619 35,000 -60 Level Salt Lake Center
03:04AM 48.2686 -106.9719 103° East 539 620 34,900  Descending Salt Lake Center
03:05AM 48.2356 -106.7533 103° East 539 620 35,000  Climbing Salt Lake Center
03:06AM 48.2128 -106.4867 97° East 540 621 35,000  Level Salt Lake Center
03:07AM 48.2242 -106.2611 86° East 542 624 35,000  Level Salt Lake Center
03:08AM 48.2292 -106.0358 88° East 543 625 35,000  Level Salt Lake Center
03:09AM 48.2339 -105.8103 88° East 543 625 35,000  Level Salt Lake Center
03:10AM 48.2375 -105.5836 89° East 543 625 35,000 -60 Level Salt Lake Center
03:11AM 48.2403 -105.3583 89° East 543 625 34,900  Descending Salt Lake Center
03:12AM 48.2428 -105.1322 89° East 542 624 35,000  Climbing Salt Lake Center
03:13AM 48.2453 -104.9053 89° East 543 625 35,000 -60 Level Salt Lake Center
03:14AM 48.2486 -104.6764 89° East 545 627 34,900  Descending Salt Lake Center
03:15AM 48.2517 -104.4469 89° East 547 629 35,000  Climbing Salt Lake Center
03:16AM 48.2525 -104.2169 90° East 548 631 35,000  Level Salt Lake Center
03:17AM 48.2531 -103.9864 90° East 549 632 35,000 -60 Level Salt Lake Center
03:18AM 48.2539 -103.7583 90° East 548 631 34,900 -60 Descending Salt Lake Center
03:19AM 48.2567 -103.5261 89° East 549 632 34,900  Level Salt Lake Center
03:20AM 48.2594 -103.2953 89° East 550 633 35,000  Climbing Salt Lake Center
03:21AM 48.2619 -103.0658 89° East 550 633 35,000  Level Salt Lake Center
03:22AM 48.2636 -102.8364 89° East 550 633 35,000  Level Salt Lake Center
03:23AM 48.2644 -102.6039 90° East 553 636 35,000  Level Salt Lake Center
03:24AM 48.2647 -102.3736 90° East 553 636 35,000  Level Salt Lake Center
03:25AM 48.2647 -102.1417 90° East 554 638 35,000  Level Salt Lake Center
03:26AM 48.2647 -101.9103 90° East 555 639 35,000  Level Salt Lake Center
03:27AM 48.2650 -101.6797 90° East 555 639 35,000  Level Salt Lake Center
03:28AM 48.2583 -101.4008 92° East 558 642 35,000  Level Minneapolis Center
03:29AM 48.2542 -101.1683 91° East 559 643 35,000  Level Minneapolis Center
03:30AM 48.2378 -100.9458 96° East 559 643 35,000  Level Minneapolis Center
03:31AM 48.2236 -100.7128 95° East 562 647 35,000 -60 Level Minneapolis Center
03:32AM 48.2100 -100.4803 95° East 563 648 34,900  Descending Minneapolis Center
03:33AM 48.1947 -100.2489 96° East 561 646 35,000  Climbing Minneapolis Center
03:34AM 48.1792 -100.0167 96° East 562 647 34,900 -60 Descending Minneapolis Center
03:35AM 48.1636 -99.7842 96° East 563 648 34,900  Level Minneapolis Center
03:36AM 48.1472 -99.5517 96° East 565 650 35,000  Climbing Minneapolis Center
03:38AM 48.1325 -99.3161 95° East 566 651 35,000  Level Minneapolis Center
03:39AM 48.1153 -99.0797 96° East 570 656 35,000  Level Minneapolis Center
03:40AM 48.0975 -98.8439 96° East 571 657 35,000 -60 Level Minneapolis Center
03:41AM 48.0778 -98.6086 97° East 570 656 34,900  Descending Minneapolis Center
03:42AM 48.0581 -98.3744 97° East 569 655 35,000  Climbing Minneapolis Center
03:43AM 48.0372 -98.1408 98° East 567 652 35,000  Level Minneapolis Center
03:44AM 48.0181 -97.9042 97° East 569 655 35,000  Level Minneapolis Center
03:45AM 47.9978 -97.6664 97° East 571 657 35,000 -60 Level Minneapolis Center
03:46AM 47.9758 -97.4314 98° East 570 656 34,900  Descending Minneapolis Center
03:47AM 47.9556 -97.1944 97° East 572 658 35,000  Climbing Minneapolis Center
03:48AM 47.9350 -96.9594 97° East 571 657 35,000  Level Minneapolis Center
03:49AM 47.9153 -96.7244 97° East 571 657 35,000  Level Minneapolis Center
03:50AM 47.8964 -96.4911 97° East 569 655 35,000  Level Minneapolis Center
03:51AM 47.8772 -96.2561 97° East 571 657 35,000  Level Minneapolis Center
03:52AM 47.8578 -96.0219 97° East 571 657 35,000 -60 Level Minneapolis Center
03:53AM 47.8372 -95.7889 97° East 569 655 34,900 -60 Descending Minneapolis Center
03:54AM 47.7867 -95.5697 109° East 560 644 34,900  Level Minneapolis Center
03:55AM 47.7253 -95.3481 112° Southeast 562 647 34,900  Level Minneapolis Center
03:56AM 47.6667 -95.1350 112° Southeast 560 644 35,000  Climbing Minneapolis Center
03:57AM 47.6067 -94.9231 113° Southeast 560 644 34,900  Descending Minneapolis Center
03:58AM 47.5478 -94.7114 112° Southeast 559 643 35,000  Climbing Minneapolis Center
03:59AM 47.4875 -94.5008 113° Southeast 558 642 35,000 -60 Level Minneapolis Center
04:00AM 47.4278 -94.2908 113° Southeast 557 641 34,900 -60 Descending Minneapolis Center
04:01AM 47.3700 -94.0822 112° Southeast 555 639 34,900  Level Minneapolis Center
04:02AM 47.3086 -93.8772 114° Southeast 553 636 35,000  Climbing Minneapolis Center
04:03AM 47.2483 -93.6708 113° Southeast 554 638 35,000  Level Minneapolis Center
04:04AM 47.1756 -93.4275 114° Southeast 552 635 35,000  Level Minneapolis Center
04:05AM 47.1161 -93.2258 113° Southeast 550 633 35,000 -60 Level Minneapolis Center
04:06AM 47.0544 -93.0233 114° Southeast 552 635 34,900  Descending Minneapolis Center
04:07AM 46.9933 -92.8200 114° Southeast 553 636 35,000  Climbing Minneapolis Center
04:08AM 46.9317 -92.6192 114° Southeast 549 632 34,900  Descending Minneapolis Center
04:09AM 46.8692 -92.4183 114° Southeast 547 629 35,000  Climbing Minneapolis Center
04:10AM 46.8075 -92.2189 114° Southeast 544 626 35,000  Level Minneapolis Center
04:11AM 46.7492 -92.0156 113° Southeast 544 626 35,000  Level Minneapolis Center
04:12AM 46.6903 -91.8194 114° Southeast 536 617 35,000  Level Minneapolis Center
04:13AM 46.6317 -91.6169 113° Southeast 542 624 35,000  Level Minneapolis Center
04:14AM 46.5683 -91.3939 112° Southeast 541 623 35,000  Level Minneapolis Center
04:15AM 46.5100 -91.1933 113° Southeast 539 620 35,000  Level Minneapolis Center
04:16AM 46.4506 -90.9950 113° Southeast 538 619 35,000  Level Minneapolis Center
04:17AM 46.3947 -90.7939 112° Southeast 537 618 35,000  Level Minneapolis Center
04:18AM 46.3353 -90.5958 113° Southeast 537 618 35,000  Level Minneapolis Center
04:19AM 46.2750 -90.3958 113° Southeast 541 623 35,000  Level Minneapolis Center
04:20AM 46.2153 -90.1986 114° Southeast 538 619 35,000  Level Minneapolis Center
04:21AM 46.1553 -90.0006 114° Southeast 538 619 35,000  Level Minneapolis Center
04:22AM 46.0950 -89.8044 114° Southeast 537 618 35,000  Level Minneapolis Center
04:23AM 46.0378 -89.6192 114° Southeast 540 621 35,000  Level Minneapolis Center
04:24AM 45.9775 -89.4253 114° Southeast 535 616 35,000  Level Minneapolis Center
04:25AM 45.9167 -89.2319 114° Southeast 533 613 35,000  Level Minneapolis Center
04:26AM 45.8367 -88.9828 115° Southeast 526 605 35,000  Level Minneapolis Center
04:27AM 45.7725 -88.7797 114° Southeast 525 604 35,000  Level Minneapolis Center
04:28AM 45.7136 -88.5958 115° Southeast 514 592 35,000  Level Minneapolis Center
04:29AM 45.6542 -88.4117 115° Southeast 512 589 35,000  Level Minneapolis Center
04:30AM 45.5939 -88.2314 115° Southeast 506 582 35,000  Level Minneapolis Center
04:31AM 45.5339 -88.0489 115° Southeast 503 579 35,000 -60 Level Minneapolis Center
04:32AM 45.4750 -87.8703 115° Southeast 500 575 34,900  Descending Minneapolis Center
04:33AM 45.4150 -87.6922 116° Southeast 499 574 35,000  Climbing Minneapolis Center
04:34AM 45.3558 -87.5144 115° Southeast 499 574 35,000  Level Minneapolis Center
04:35AM 45.2956 -87.3367 116° Southeast 502 578 35,000  Level Minneapolis Center
04:36AM 45.2356 -87.1600 116° Southeast 501 577 35,000  Level Minneapolis Center
04:37AM 45.1742 -86.9850 116° Southeast 498 573 35,000 -60 Level Minneapolis Center
04:38AM 45.1142 -86.8089 116° Southeast 497 572 34,900  Descending Minneapolis Center
04:39AM 45.0514 -86.6281 116° Southeast 500 575 35,000  Climbing Minneapolis Center
04:40AM 44.9897 -86.4531 116° Southeast 499 574 35,000  Level Minneapolis Center
04:41AM 44.9297 -86.2814 116° Southeast 493 567 35,000  Level Minneapolis Center
04:42AM 44.8683 -86.1106 117° Southeast 490 564 35,000  Level Minneapolis Center
04:43AM 44.8075 -85.9389 116° Southeast 490 564 35,000  Level Minneapolis Center
04:44AM 44.7456 -85.7633 116° Southeast 496 571 35,000  Level Minneapolis Center
04:45AM 44.6792 -85.5806 117° Southeast 497 572 35,000  Level Minneapolis Center
04:46AM 44.6356 -85.3939 108° East 507 583 35,000  Level Minneapolis Center
04:47AM 44.5964 -85.2047 106° East 507 583 35,000 -60 Level Minneapolis Center
04:48AM 44.5564 -85.0156 106° East 507 583 34,900  Descending Minneapolis Center
04:49AM 44.5167 -84.8272 106° East 507 583 35,000  Climbing Minneapolis Center
04:50AM 44.4756 -84.6397 107° East 506 582 35,000 -60 Level Minneapolis Center
04:51AM 44.4356 -84.4519 107° East 505 581 34,900  Descending Minneapolis Center
04:52AM 44.3944 -84.2653 107° East 505 581 35,000  Climbing Minneapolis Center
04:53AM 44.3539 -84.0797 107° East 501 577 34,900  Descending Minneapolis Center
04:54AM 44.3122 -83.8936 107° East 503 579 35,000  Climbing Minneapolis Center
04:55AM 44.2794 -83.7458 107° East 501 577 34,900 -60 Descending Minneapolis Center
04:56AM 44.2294 -83.5247 107° East 501 577 34,900  Level Minneapolis Center
04:57AM 44.1883 -83.3417 107° East 498 573 35,000  Climbing Minneapolis Center
04:58AM 44.1469 -83.1597 108° East 496 571 35,000  Level Minneapolis Center
04:59AM 44.0939 -82.9867 113° Southeast 489 563 35,000  Level Minneapolis Center
05:00AM 44.0225 -82.7825 116° Southeast 490 564 35,000  Level Minneapolis Center
05:01AM 43.9642 -82.6114 115° Southeast 491 565 35,000  Level Minneapolis Center
05:02AM 43.9061 -82.4417 115° Southeast 490 564 35,000  Level Minneapolis Center
05:03AM 43.8333 -82.2667 120° Southeast 490 564 35,000  Level Toronto Center
05:04AM 43.7667 -82.0833 117° Southeast 490 564 35,000  Level Toronto Center
05:05AM 43.7167 -81.9167 112° Southeast 490 564 35,000  Level Toronto Center
05:06AM 43.6500 -81.7500 119° Southeast 490 564 35,000  Level Toronto Center
05:07AM 43.6000 -81.5833 112° Southeast 490 564 35,000  Level Toronto Center
05:08AM 43.5333 -81.4000 117° Southeast 490 564 35,000  Level Toronto Center
05:09AM 43.4667 -81.2333 119° Southeast 490 564 35,000  Level Toronto Center
05:10AM 43.4167 -81.0833 115° Southeast 490 564 35,000  Level Toronto Center
05:11AM 43.3500 -80.9000 117° Southeast 490 564 35,000  Level Toronto Center
05:12AM 43.3000 -80.7333 112° Southeast 490 564 35,000  Level Toronto Center
05:13AM 43.2333 -80.5667 119° Southeast 490 564 35,000  Level Toronto Center
05:14AM 43.1667 -80.4167 121° Southeast 490 564 35,000  Level Toronto Center
05:15AM 43.1167 -80.2500 112° Southeast 490 564 35,000  Level Toronto Center
05:16AM 43.0500 -80.0667 116° Southeast 490 564 35,000  Level Toronto Center
05:17AM 42.9833 -79.9000 119° Southeast 490 564 35,000  Level Toronto Center
05:18AM 42.9167 -79.7500 121° Southeast 500 575 35,000  Level Toronto Center
05:19AM 42.8500 -79.5667 116° Southeast 500 575 35,000  Level Toronto Center
05:20AM 42.8386 -79.4961 102° East 491 565 35,000  Level Cleveland Center
05:21AM 42.7703 -79.3303 119° Southeast 491 565 35,000  Level Cleveland Center
05:22AM 42.7058 -79.1678 118° Southeast 491 565 35,000  Level Cleveland Center
05:23AM 42.6411 -78.9997 118° Southeast 491 565 35,000  Level Cleveland Center
05:24AM 42.5761 -78.8350 118° Southeast 491 565 35,000  Level Cleveland Center
05:25AM 42.5025 -78.6511 118° Southeast 499 574 35,000  Level Cleveland Center
05:26AM 42.4392 -78.4844 117° Southeast 499 574 35,000  Level Cleveland Center
05:27AM 42.3736 -78.3236 119° Southeast 499 574 35,000  Level Cleveland Center
05:28AM 42.3056 -78.1547 119° Southeast 499 574 35,000  Level Cleveland Center
05:29AM 42.2394 -77.9917 119° Southeast 499 574 35,000  Level Cleveland Center
05:31AM 42.0881 -77.6258 119° Southeast 509 586 35,000  Level New York Center
05:32AM 42.0244 -77.4631 118° Southeast 509 586 35,000  Level New York Center
05:33AM 41.9564 -77.3000 119° Southeast 504 580 35,000  Level New York Center
05:34AM 41.8900 -77.1400 119° Southeast 504 580 35,000  Level New York Center
05:35AM 41.8197 -76.9747 120° Southeast 504 580 35,000  Level New York Center
05:36AM 41.7550 -76.8128 118° Southeast 504 580 35,000  Level New York Center
05:37AM 41.6936 -76.6683 120° Southeast 504 580 35,000  Level New York Center
05:38AM 41.6244 -76.5069 120° Southeast 504 580 35,000  Level New York Center
05:39AM 41.5592 -76.3461 118° Southeast 504 580 35,000  Level New York Center
05:40AM 41.4900 -76.1797 119° Southeast 504 580 35,000 -300 Level New York Center
05:41AM 41.4161 -76.0161 121° Southeast 509 586 34,500 -960 Descending New York Center
05:42AM 41.3403 -75.8442 120° Southeast 503 579 33,100 -2,400 Descending New York Center
05:43AM 41.2717 -75.6900 121° Southeast 503 579 29,800 -3,540 Descending New York Center
05:44AM 41.2200 -75.5292 113° Southeast 508 585 26,100 -3,300 Descending New York Center
05:45AM 41.1619 -75.3625 115° Southeast 503 579 23,200 -1,560 Descending New York Center
05:46AM 41.1078 -75.1989 114° Southeast 496 571 23,000 -120 Descending New York Center
05:47AM 41.0511 -75.0386 115° Southeast 490 564 23,000  Level New York Center
05:48AM 41.0008 -74.8703 112° Southeast 490 564 23,000  Level New York Center
05:49AM 40.9758 -74.6847 100° East 474 545 23,000 -780 Level New York Center
05:50AM 40.9567 -74.5050 98° East 479 551 21,500 -1,860 Descending New York Center
05:51AM 40.9500 -74.4000 95° East 473 544 20,000 -1,500 Descending New York TRACON
05:52AM 40.9333 -74.2500 98° East 428 493 19,300 -600 Descending New York TRACON
05:53AM 40.9167 -74.1333 101° East 393 452 19,000 -420 Descending New York TRACON
05:54AM 40.8333 -74.0667 149° Southeast 354 407 18,600 -1,020 Descending New York TRACON
05:55AM 40.7333 -74.0167 159° South 346 398 17,100 -1,740 Descending New York TRACON
05:55AM 40.6500 -74.0000 171° South 343 395 15,300 -1,800 Descending New York TRACON
05:56AM 40.5667 -73.9667 163° South 325 374 13,700 -1,680 Descending New York TRACON
05:57AM 40.5000 -73.9333 159° South 315 362 12,200 -1,560 Descending New York TRACON
05:58AM 40.4333 -73.8833 150° Southeast 303 349 10,800 -1,620 Descending New York TRACON
05:59AM 40.3667 -73.8000 136° Southeast 289 333 8,900 -1,620 Descending New York TRACON
06:00AM 40.3000 -73.7333 143° Southeast 285 328 7,400 -1,500 Descending New York TRACON
06:01AM 40.3167 -73.6500 75° East 271 312 5,900 -1,620 Descending New York TRACON
06:02AM 40.3667 -73.6000 37° Northeast 255 293 4,400 -1,560 Descending New York TRACON
06:03AM 40.4333 -73.5667 21° North 246 283 3,000 -720 Descending New York TRACON
06:04AM 40.5000 -73.6000 339° North 236 272 3,000 -240 Level New York TRACON
06:05AM 40.5333 -73.6333 323° Northwest 215 247 2,600 -600 Descending New York TRACON
06:06AM 40.5833 -73.6667 333° Northwest 179 206 1,900 -780 Descending New York TRACON
06:07AM 40.6000 -73.7167 294° West 147 169 1,200 -840 Descending New York TRACON
06:08AM 40.6167 -73.7667 294° West 150 173 400 -840 Descending New York TRACON